sensor_id;sensor_type;location;lat;lon;timestamp;pressure;altitude;pressure_sealevel;temperature;humidity
46944;BME280;32678;43.852;25.952;2022-12-07T00:03:19;101315.25;;;8.15;92.97
46944;BME280;32678;43.852;25.952;2022-12-07T00:08:16;101303.88;;;8.18;92.35
46944;BME280;32678;43.852;25.952;2022-12-07T00:13:16;101304.75;;;8.17;92.48
46944;BME280;32678;43.852;25.952;2022-12-07T00:18:12;101314.28;;;8.21;92.49
46944;BME280;32678;43.852;25.952;2022-12-07T00:23:09;101314.25;;;8.22;92.33
46944;BME280;32678;43.852;25.952;2022-12-07T00:28:06;101317.69;;;8.27;92.21
46944;BME280;32678;43.852;25.952;2022-12-07T00:33:07;101313.28;;;8.31;91.86
46944;BME280;32678;43.852;25.952;2022-12-07T00:38:04;101317.69;;;8.31;92.02
46944;BME280;32678;43.852;25.952;2022-12-07T00:43:00;101328.97;;;8.31;92.06
46944;BME280;32678;43.852;25.952;2022-12-07T00:47:57;101323.78;;;8.30;91.70
46944;BME280;32678;43.852;25.952;2022-12-07T00:52:56;101313.34;;;8.26;91.79
46944;BME280;32678;43.852;25.952;2022-12-07T00:57:53;101319.41;;;8.27;91.69
46944;BME280;32678;43.852;25.952;2022-12-07T01:02:50;101313.34;;;8.26;91.70
46944;BME280;32678;43.852;25.952;2022-12-07T01:07:47;101308.13;;;8.30;91.74
46944;BME280;32678;43.852;25.952;2022-12-07T01:12:44;101305.75;;;8.08;91.26
46944;BME280;32678;43.852;25.952;2022-12-07T01:17:41;101289.81;;;7.65;92.96
46944;BME280;32678;43.852;25.952;2022-12-07T01:22:41;101284.66;;;7.62;93.99
46944;BME280;32678;43.852;25.952;2022-12-07T01:27:39;101277.50;;;7.76;93.70
46944;BME280;32678;43.852;25.952;2022-12-07T01:32:40;101273.22;;;7.68;94.23
46944;BME280;32678;43.852;25.952;2022-12-07T01:37:39;101274.97;;;7.70;94.33
46944;BME280;32678;43.852;25.952;2022-12-07T01:42:36;101266.06;;;7.85;94.32
46944;BME280;32678;43.852;25.952;2022-12-07T01:47:36;101268.94;;;7.67;94.46
46944;BME280;32678;43.852;25.952;2022-12-07T01:52:33;101265.41;;;7.68;94.93
46944;BME280;32678;43.852;25.952;2022-12-07T01:57:31;101240.44;;;7.49;94.78
46944;BME280;32678;43.852;25.952;2022-12-07T02:02:30;101283.78;;;7.62;94.36
46944;BME280;32678;43.852;25.952;2022-12-07T02:07:28;101293.66;;;7.35;96.26
46944;BME280;32678;43.852;25.952;2022-12-07T02:12:27;101292.03;;;7.24;96.84
46944;BME280;32678;43.852;25.952;2022-12-07T02:17:28;101287.09;;;6.95;99.04
46944;BME280;32678;43.852;25.952;2022-12-07T02:22:34;101278.50;;;6.87;100.00
46944;BME280;32678;43.852;25.952;2022-12-07T02:27:38;101269.03;;;6.78;100.00
46944;BME280;32678;43.852;25.952;2022-12-07T02:32:42;101259.53;;;6.73;100.00
46944;BME280;32678;43.852;25.952;2022-12-07T02:37:41;101237.00;;;6.67;100.00
46944;BME280;32678;43.852;25.952;2022-12-07T02:42:40;101274.31;;;6.71;100.00
46944;BME280;32678;43.852;25.952;2022-12-07T02:47:38;101266.53;;;6.65;100.00
46944;BME280;32678;43.852;25.952;2022-12-07T02:52:36;101263.13;;;6.60;100.00
46944;BME280;32678;43.852;25.952;2022-12-07T02:57:42;101257.06;;;6.58;100.00
46944;BME280;32678;43.852;25.952;2022-12-07T03:02:48;101265.75;;;6.57;100.00
46944;BME280;32678;43.852;25.952;2022-12-07T03:07:49;101263.22;;;6.46;100.00
46944;BME280;32678;43.852;25.952;2022-12-07T03:12:52;101252.72;;;6.55;100.00
46944;BME280;32678;43.852;25.952;2022-12-07T03:17:53;101245.72;;;6.63;100.00
46944;BME280;32678;43.852;25.952;2022-12-07T03:22:54;101238.81;;;6.59;100.00
46944;BME280;32678;43.852;25.952;2022-12-07T03:27:52;101237.00;;;6.67;100.00
46944;BME280;32678;43.852;25.952;2022-12-07T03:32:53;101237.25;;;6.35;100.00
46944;BME280;32678;43.852;25.952;2022-12-07T03:37:53;101231.22;;;6.33;100.00
46944;BME280;32678;43.852;25.952;2022-12-07T03:42:54;101248.50;;;6.43;100.00
46944;BME280;32678;43.852;25.952;2022-12-07T03:47:53;101247.72;;;6.32;100.00
46944;BME280;32678;43.852;25.952;2022-12-07T03:52:53;101243.28;;;6.43;100.00
46944;BME280;32678;43.852;25.952;2022-12-07T03:57:53;101255.38;;;6.50;100.00
46944;BME280;32678;43.852;25.952;2022-12-07T04:02:53;101253.75;;;6.39;100.00
46944;BME280;32678;43.852;25.952;2022-12-07T04:07:52;101243.25;;;6.46;100.00
46944;BME280;32678;43.852;25.952;2022-12-07T04:12:49;101237.13;;;6.52;100.00
46944;BME280;32678;43.852;25.952;2022-12-07T04:17:47;101240.47;;;6.65;100.00
46944;BME280;32678;43.852;25.952;2022-12-07T04:22:44;101251.81;;;6.61;100.00
46944;BME280;32678;43.852;25.952;2022-12-07T04:27:41;101242.31;;;6.57;100.00
46944;BME280;32678;43.852;25.952;2022-12-07T04:32:37;101241.31;;;6.70;100.00
46944;BME280;32678;43.852;25.952;2022-12-07T04:37:36;101238.75;;;6.65;100.00
46944;BME280;32678;43.852;25.952;2022-12-07T04:42:37;101236.09;;;6.71;100.00
46944;BME280;32678;43.852;25.952;2022-12-07T04:47:34;101236.94;;;6.72;100.00
46944;BME280;32678;43.852;25.952;2022-12-07T04:52:31;101239.38;;;6.90;100.00
46944;BME280;32678;43.852;25.952;2022-12-07T04:57:28;101247.38;;;6.73;100.00
46944;BME280;32678;43.852;25.952;2022-12-07T05:02:25;101243.84;;;6.77;100.00
46944;BME280;32678;43.852;25.952;2022-12-07T05:07:22;101252.53;;;6.76;100.00
46944;BME280;32678;43.852;25.952;2022-12-07T05:12:18;101253.28;;;6.90;100.00
46944;BME280;32678;43.852;25.952;2022-12-07T05:17:19;101251.53;;;6.91;100.00
46944;BME280;32678;43.852;25.952;2022-12-07T05:22:16;101258.47;;;6.92;99.85
46944;BME280;32678;43.852;25.952;2022-12-07T05:27:12;101258.53;;;6.89;98.84
46944;BME280;32678;43.852;25.952;2022-12-07T05:32:12;101263.84;;;6.78;100.00
46944;BME280;32678;43.852;25.952;2022-12-07T05:37:10;101232.72;;;6.62;100.00
46944;BME280;32678;43.852;25.952;2022-12-07T05:42:07;101253.47;;;6.71;100.00
46944;BME280;32678;43.852;25.952;2022-12-07T05:47:10;101251.81;;;6.62;100.00
46944;BME280;32678;43.852;25.952;2022-12-07T05:52:10;101246.59;;;6.62;100.00
46944;BME280;32678;43.852;25.952;2022-12-07T05:57:08;101252.53;;;6.75;100.00
46944;BME280;32678;43.852;25.952;2022-12-07T06:02:06;101245.53;;;6.81;100.00
46944;BME280;32678;43.852;25.952;2022-12-07T06:07:03;101253.28;;;6.90;99.13
46944;BME280;32678;43.852;25.952;2022-12-07T06:12:02;101254.28;;;6.79;99.98
46944;BME280;32678;43.852;25.952;2022-12-07T06:17:17;101255.97;;;6.83;99.74
46944;BME280;32678;43.852;25.952;2022-12-07T06:22:14;101255.09;;;6.82;98.91
46944;BME280;32678;43.852;25.952;2022-12-07T06:27:12;101251.47;;;6.95;98.52
46944;BME280;32678;43.852;25.952;2022-12-07T06:32:11;101249.13;;;6.71;98.29
46944;BME280;32678;43.852;25.952;2022-12-07T06:37:08;101257.88;;;6.63;99.04
46944;BME280;32678;43.852;25.952;2022-12-07T06:42:05;101258.63;;;6.78;97.73
46944;BME280;32678;43.852;25.952;2022-12-07T06:47:02;101267.47;;;6.59;97.62
46944;BME280;32678;43.852;25.952;2022-12-07T06:52:24;101263.94;;;6.66;97.54
46944;BME280;32678;43.852;25.952;2022-12-07T06:57:20;101264.91;;;6.51;98.58
46944;BME280;32678;43.852;25.952;2022-12-07T07:02:19;101268.31;;;6.64;97.23
46944;BME280;32678;43.852;25.952;2022-12-07T07:07:20;101268.47;;;6.44;98.02
46944;BME280;32678;43.852;25.952;2022-12-07T07:12:17;101277.06;;;6.54;97.70
46944;BME280;32678;43.852;25.952;2022-12-07T07:17:14;101267.53;;;6.51;98.39
46944;BME280;32678;43.852;25.952;2022-12-07T07:22:11;101269.13;;;6.68;97.98
46944;BME280;32678;43.852;25.952;2022-12-07T07:27:08;101278.59;;;6.76;97.59
46944;BME280;32678;43.852;25.952;2022-12-07T07:32:05;101268.13;;;6.79;96.60
46944;BME280;32678;43.852;25.952;2022-12-07T07:37:12;101257.81;;;6.70;97.66
46944;BME280;32678;43.852;25.952;2022-12-07T07:42:17;101258.56;;;6.80;96.06
46944;BME280;32678;43.852;25.952;2022-12-07T07:47:15;101267.25;;;6.82;96.19
46944;BME280;32678;43.852;25.952;2022-12-07T07:52:12;101264.59;;;6.88;95.90
46944;BME280;32678;43.852;25.952;2022-12-07T07:57:09;101264.56;;;6.92;95.97
46944;BME280;32678;43.852;25.952;2022-12-07T08:02:06;101269.78;;;6.92;95.77
46944;BME280;32678;43.852;25.952;2022-12-07T08:07:04;101261.91;;;6.94;94.14
46944;BME280;32678;43.852;25.952;2022-12-07T08:12:02;101266.41;;;6.83;94.47
46944;BME280;32678;43.852;25.952;2022-12-07T08:16:59;101268.09;;;6.85;94.13
46944;BME280;32678;43.852;25.952;2022-12-07T08:21:59;101263.88;;;6.72;95.63
46944;BME280;32678;43.852;25.952;2022-12-07T08:26:56;101266.09;;;7.09;94.63
46944;BME280;32678;43.852;25.952;2022-12-07T08:31:53;101258.22;;;7.15;93.98
46944;BME280;32678;43.852;25.952;2022-12-07T08:36:50;101255.81;;;6.95;94.96
46944;BME280;32678;43.852;25.952;2022-12-07T08:41:47;101263.72;;;6.89;94.55
46944;BME280;32678;43.852;25.952;2022-12-07T08:46:46;101256.59;;;7.06;93.63
46944;BME280;32678;43.852;25.952;2022-12-07T08:51:48;101263.75;;;6.86;95.01
46944;BME280;32678;43.852;25.952;2022-12-07T08:56:49;101264.72;;;6.76;95.05
46944;BME280;32678;43.852;25.952;2022-12-07T09:01:54;101239.53;;;6.75;96.19
46944;BME280;32678;43.852;25.952;2022-12-07T09:06:52;101228.88;;;6.97;95.09
46944;BME280;32678;43.852;25.952;2022-12-07T09:11:50;101215.91;;;6.91;96.40
46944;BME280;32678;43.852;25.952;2022-12-07T09:22:18;101214.06;;;7.03;95.97
46944;BME280;32678;43.852;25.952;2022-12-07T09:27:15;101206.13;;;7.10;95.11
46944;BME280;32678;43.852;25.952;2022-12-07T09:32:13;101226.75;;;7.30;94.74
46944;BME280;32678;43.852;25.952;2022-12-07T09:37:13;101221.53;;;7.33;94.05
46944;BME280;32678;43.852;25.952;2022-12-07T09:42:13;101220.78;;;7.22;92.96
46944;BME280;32678;43.852;25.952;2022-12-07T09:47:15;101209.88;;;6.86;95.00
46944;BME280;32678;43.852;25.952;2022-12-07T09:52:17;101200.16;;;7.04;94.72
46944;BME280;32678;43.852;25.952;2022-12-07T09:57:16;101191.53;;;6.94;95.74
46944;BME280;32678;43.852;25.952;2022-12-07T10:02:21;101182.44;;;7.28;93.23
46944;BME280;32678;43.852;25.952;2022-12-07T10:07:22;101177.50;;;7.07;94.13
46944;BME280;32678;43.852;25.952;2022-12-07T10:12:21;101183.56;;;7.08;93.31
46944;BME280;32678;43.852;25.952;2022-12-07T10:17:32;101174.94;;;7.01;94.25
46944;BME280;32678;43.852;25.952;2022-12-07T10:22:29;101172.22;;;7.10;93.63
46944;BME280;32678;43.852;25.952;2022-12-07T10:27:30;101159.97;;;7.18;93.37
46944;BME280;32678;43.852;25.952;2022-12-07T10:32:29;101165.78;;;7.38;93.97
46944;BME280;32678;43.852;25.952;2022-12-07T10:37:35;101170.09;;;7.41;92.71
46944;BME280;32678;43.852;25.952;2022-12-07T10:42:37;101163.28;;;7.29;92.90
46944;BME280;32678;43.852;25.952;2022-12-07T10:47:34;101149.44;;;7.27;93.59
46944;BME280;32678;43.852;25.952;2022-12-07T10:52:37;101146.50;;;7.49;93.69
46944;BME280;32678;43.852;25.952;2022-12-07T10:57:44;101141.41;;;7.39;92.92
46944;BME280;32678;43.852;25.952;2022-12-07T11:08:05;101130.19;;;7.93;91.17
46944;BME280;32678;43.852;25.952;2022-12-07T11:13:14;101140.25;;;7.60;91.87
46944;BME280;32678;43.852;25.952;2022-12-07T11:18:14;101130.69;;;7.59;91.22
46944;BME280;32678;43.852;25.952;2022-12-07T11:23:18;101132.94;;;7.82;91.44
46944;BME280;32678;43.852;25.952;2022-12-07T11:28:26;101116.16;;;7.98;91.25
46944;BME280;32678;43.852;25.952;2022-12-07T11:33:29;101119.78;;;7.91;90.45
46944;BME280;32678;43.852;25.952;2022-12-07T11:38:33;101114.47;;;7.96;90.55
46944;BME280;32678;43.852;25.952;2022-12-07T11:49:01;101098.09;;;7.86;90.31
46944;BME280;32678;43.852;25.952;2022-12-07T11:54:02;101098.59;;;8.06;89.93
46944;BME280;32678;43.852;25.952;2022-12-07T11:59:01;101085.44;;;8.12;89.79
46944;BME280;32678;43.852;25.952;2022-12-07T12:04:02;101081.81;;;8.21;89.70
46944;BME280;32678;43.852;25.952;2022-12-07T12:09:06;101078.22;;;8.30;88.83
46944;BME280;32678;43.852;25.952;2022-12-07T12:14:37;101079.97;;;8.27;89.02
46944;BME280;32678;43.852;25.952;2022-12-07T12:19:43;101072.84;;;8.37;88.76
46944;BME280;32678;43.852;25.952;2022-12-07T12:24:52;101068.38;;;8.42;87.76
46944;BME280;32678;43.852;25.952;2022-12-07T12:29:51;101050.41;;;8.25;87.05
46944;BME280;32678;43.852;25.952;2022-12-07T12:35:00;101047.03;;;8.19;87.28
46944;BME280;32678;43.852;25.952;2022-12-07T12:45:19;101041.78;;;8.20;87.63
46944;BME280;32678;43.852;25.952;2022-12-07T12:50:18;101046.28;;;8.12;87.93
46944;BME280;32678;43.852;25.952;2022-12-07T12:55:18;101041.91;;;8.14;87.77
46944;BME280;32678;43.852;25.952;2022-12-07T13:00:17;101047.84;;;8.22;87.87
46944;BME280;32678;43.852;25.952;2022-12-07T13:05:18;101058.19;;;8.27;88.15
46944;BME280;32678;43.852;25.952;2022-12-07T13:10:21;101048.56;;;8.32;88.00
46944;BME280;32678;43.852;25.952;2022-12-07T13:15:31;101039.03;;;8.28;87.82
46944;BME280;32678;43.852;25.952;2022-12-07T13:20:44;101030.19;;;8.37;87.51
46944;BME280;32678;43.852;25.952;2022-12-07T13:25:44;101008.28;;;8.42;86.95
46944;BME280;32678;43.852;25.952;2022-12-07T13:30:44;101022.31;;;8.38;86.56
46944;BME280;32678;43.852;25.952;2022-12-07T13:35:43;101022.47;;;8.31;86.85
46944;BME280;32678;43.852;25.952;2022-12-07T13:40:54;101011.84;;;8.40;86.82
46944;BME280;32678;43.852;25.952;2022-12-07T13:45:58;101011.00;;;8.38;86.33
46944;BME280;32678;43.852;25.952;2022-12-07T13:50:58;101014.63;;;8.29;86.77
46944;BME280;32678;43.852;25.952;2022-12-07T13:56:00;101010.13;;;8.39;87.07
46944;BME280;32678;43.852;25.952;2022-12-07T14:01:05;101015.38;;;8.37;87.21
46944;BME280;32678;43.852;25.952;2022-12-07T14:06:24;101009.22;;;8.40;86.76
46944;BME280;32678;43.852;25.952;2022-12-07T14:11:27;101013.16;;;8.16;87.51
46944;BME280;32678;43.852;25.952;2022-12-07T14:16:33;101002.72;;;8.14;87.92
46944;BME280;32678;43.852;25.952;2022-12-07T14:21:34;101011.00;;;7.90;88.56
46944;BME280;32678;43.852;25.952;2022-12-07T14:26:32;101010.94;;;7.93;89.22
46944;BME280;32678;43.852;25.952;2022-12-07T14:31:29;101003.91;;;7.97;89.15
46944;BME280;32678;43.852;25.952;2022-12-07T14:36:29;101006.56;;;7.95;89.12
46944;BME280;32678;43.852;25.952;2022-12-07T14:41:29;100999.53;;;7.99;88.82
46944;BME280;32678;43.852;25.952;2022-12-07T14:46:48;100997.63;;;8.08;88.85
46944;BME280;32678;43.852;25.952;2022-12-07T14:51:54;100993.25;;;8.09;89.06
46944;BME280;32678;43.852;25.952;2022-12-07T14:57:12;100989.56;;;8.19;88.71
46944;BME280;32678;43.852;25.952;2022-12-07T15:02:10;100986.59;;;7.93;89.87
46944;BME280;32678;43.852;25.952;2022-12-07T15:07:15;100980.69;;;7.83;90.46
46944;BME280;32678;43.852;25.952;2022-12-07T15:12:39;100993.72;;;7.83;90.67
46944;BME280;32678;43.852;25.952;2022-12-07T15:17:41;100983.28;;;7.83;91.06
46944;BME280;32678;43.852;25.952;2022-12-07T15:22:38;100972.75;;;7.89;90.67
46944;BME280;32678;43.852;25.952;2022-12-07T15:27:36;100966.81;;;7.81;91.34
46944;BME280;32678;43.852;25.952;2022-12-07T15:32:35;100965.97;;;7.79;91.45
46944;BME280;32678;43.852;25.952;2022-12-07T15:37:36;100977.97;;;7.89;91.59
46944;BME280;32678;43.852;25.952;2022-12-07T15:42:34;100994.41;;;7.93;91.49
46944;BME280;32678;43.852;25.952;2022-12-07T15:47:35;100991.69;;;7.99;90.91
46944;BME280;32678;43.852;25.952;2022-12-07T15:52:59;101000.31;;;8.04;91.45
46944;BME280;32678;43.852;25.952;2022-12-07T15:57:59;100991.19;;;7.80;92.32
46944;BME280;32678;43.852;25.952;2022-12-07T16:03:00;100995.53;;;7.79;92.93
46944;BME280;32678;43.852;25.952;2022-12-07T16:07:57;100979.91;;;7.27;94.97
46944;BME280;32678;43.852;25.952;2022-12-07T16:12:58;100996.50;;;7.22;96.51
46944;BME280;32678;43.852;25.952;2022-12-07T16:17:56;100972.31;;;7.12;96.68
46944;BME280;32678;43.852;25.952;2022-12-07T16:22:55;100986.16;;;7.16;97.21
46944;BME280;32678;43.852;25.952;2022-12-07T16:27:54;100977.25;;;7.30;96.36
46944;BME280;32678;43.852;25.952;2022-12-07T16:32:52;100980.81;;;7.25;96.43
46944;BME280;32678;43.852;25.952;2022-12-07T16:38:00;100984.72;;;6.96;98.35
46944;BME280;32678;43.852;25.952;2022-12-07T16:42:57;100980.22;;;7.08;98.61
46944;BME280;32678;43.852;25.952;2022-12-07T16:48:16;100978.66;;;7.48;96.37
46944;BME280;32678;43.852;25.952;2022-12-07T16:53:13;100984.81;;;7.46;95.67
46944;BME280;32678;43.852;25.952;2022-12-07T16:58:11;100988.28;;;7.46;95.77
46944;BME280;32678;43.852;25.952;2022-12-07T17:03:10;101000.25;;;7.58;95.77
46944;BME280;32678;43.852;25.952;2022-12-07T17:08:15;100999.44;;;7.56;95.65
46944;BME280;32678;43.852;25.952;2022-12-07T17:13:12;100995.97;;;7.55;95.77
46944;BME280;32678;43.852;25.952;2022-12-07T17:18:28;100994.94;;;7.64;95.11
46944;BME280;32678;43.852;25.952;2022-12-07T17:23:26;100991.94;;;7.34;97.31
46944;BME280;32678;43.852;25.952;2022-12-07T17:28:23;100973.47;;;6.93;99.14
46944;BME280;32678;43.852;25.952;2022-12-07T17:33:20;100989.56;;;7.21;99.21
46944;BME280;32678;43.852;25.952;2022-12-07T17:38:18;100993.63;;;7.38;97.46
46944;BME280;32678;43.852;25.952;2022-12-07T17:43:17;101006.88;;;7.25;99.06
46944;BME280;32678;43.852;25.952;2022-12-07T17:48:16;101020.72;;;7.30;99.02
46944;BME280;32678;43.852;25.952;2022-12-07T17:53:16;101024.19;;;7.29;98.36
46944;BME280;32678;43.852;25.952;2022-12-07T17:58:13;101028.22;;;6.91;100.00
46944;BME280;32678;43.852;25.952;2022-12-07T18:03:11;101032.97;;;7.25;100.00
46944;BME280;32678;43.852;25.952;2022-12-07T18:08:10;101010.38;;;7.24;99.63
46944;BME280;32678;43.852;25.952;2022-12-07T18:13:13;101040.72;;;7.29;99.39
46944;BME280;32678;43.852;25.952;2022-12-07T18:18:33;101043.31;;;6.67;100.00
46944;BME280;32678;43.852;25.952;2022-12-07T18:23:30;101046.59;;;6.84;100.00
46944;BME280;32678;43.852;25.952;2022-12-07T18:28:28;101042.88;;;7.02;100.00
46944;BME280;32678;43.852;25.952;2022-12-07T18:33:30;101039.09;;;6.58;100.00
46944;BME280;32678;43.852;25.952;2022-12-07T18:38:41;101056.91;;;6.93;100.00
46944;BME280;32678;43.852;25.952;2022-12-07T18:43:38;101048.13;;;6.97;100.00
46944;BME280;32678;43.852;25.952;2022-12-07T18:48:36;101049.97;;;6.90;100.00
46944;BME280;32678;43.852;25.952;2022-12-07T18:53:36;101036.09;;;6.88;100.00
46944;BME280;32678;43.852;25.952;2022-12-07T18:58:34;101040.13;;;7.12;100.00
46944;BME280;32678;43.852;25.952;2022-12-07T19:03:31;101011.75;;;6.89;100.00
46944;BME280;32678;43.852;25.952;2022-12-07T19:08:30;101030.97;;;6.79;100.00
46944;BME280;32678;43.852;25.952;2022-12-07T19:13:31;101035.13;;;6.94;100.00
46944;BME280;32678;43.852;25.952;2022-12-07T19:18:28;101029.09;;;6.90;100.00
46944;BME280;32678;43.852;25.952;2022-12-07T19:23:25;101041.66;;;7.24;100.00
46944;BME280;32678;43.852;25.952;2022-12-07T19:28:27;101026.72;;;7.36;100.00
46944;BME280;32678;43.852;25.952;2022-12-07T19:33:24;101014.47;;;7.42;100.00
46944;BME280;32678;43.852;25.952;2022-12-07T19:38:21;101013.38;;;7.53;99.82
46944;BME280;32678;43.852;25.952;2022-12-07T19:43:18;101015.13;;;7.53;99.11
46944;BME280;32678;43.852;25.952;2022-12-07T19:48:16;101012.56;;;7.50;99.57
46944;BME280;32678;43.852;25.952;2022-12-07T19:53:13;101026.41;;;7.53;98.88
46944;BME280;32678;43.852;25.952;2022-12-07T19:58:11;101019.31;;;7.63;98.66
46944;BME280;32678;43.852;25.952;2022-12-07T20:03:08;101013.19;;;7.64;98.31
46944;BME280;32678;43.852;25.952;2022-12-07T20:08:11;101029.88;;;7.55;98.24
46944;BME280;32678;43.852;25.952;2022-12-07T20:13:08;101049.16;;;7.47;99.00
46944;BME280;32678;43.852;25.952;2022-12-07T20:18:31;101037.38;;;7.76;98.23
46944;BME280;32678;43.852;25.952;2022-12-07T20:23:34;101052.88;;;7.84;97.86
46944;BME280;32678;43.852;25.952;2022-12-07T20:28:34;101054.44;;;7.96;97.38
46944;BME280;32678;43.852;25.952;2022-12-07T20:33:31;101058.09;;;7.86;96.47
46944;BME280;32678;43.852;25.952;2022-12-07T20:38:29;101058.78;;;7.95;95.97
46944;BME280;32678;43.852;25.952;2022-12-07T20:43:30;101050.88;;;8.00;95.82
46944;BME280;32678;43.852;25.952;2022-12-07T20:48:27;101035.22;;;8.00;95.74
46944;BME280;32678;43.852;25.952;2022-12-07T20:53:26;101059.41;;;8.09;95.38
46944;BME280;32678;43.852;25.952;2022-12-07T20:58:26;101054.97;;;8.13;95.64
46944;BME280;32678;43.852;25.952;2022-12-07T21:03:29;101049.59;;;8.22;95.25
46944;BME280;32678;43.852;25.952;2022-12-07T21:08:28;101055.59;;;8.27;94.81
46944;BME280;32678;43.852;25.952;2022-12-07T21:13:25;101081.69;;;8.27;94.85
46944;BME280;32678;43.852;25.952;2022-12-07T21:18:22;101085.09;;;8.34;94.60
46944;BME280;32678;43.852;25.952;2022-12-07T21:23:21;101103.53;;;8.24;93.87
46944;BME280;32678;43.852;25.952;2022-12-07T21:28:20;101105.22;;;8.27;93.93
46944;BME280;32678;43.852;25.952;2022-12-07T21:33:25;101121.72;;;8.29;93.64
46944;BME280;32678;43.852;25.952;2022-12-07T21:38:34;101115.59;;;8.32;93.95
46944;BME280;32678;43.852;25.952;2022-12-07T21:43:34;101114.72;;;8.34;93.86
46944;BME280;32678;43.852;25.952;2022-12-07T21:48:35;101111.31;;;8.31;93.54
46944;BME280;32678;43.852;25.952;2022-12-07T21:53:39;101087.97;;;8.18;93.70
46944;BME280;32678;43.852;25.952;2022-12-07T21:58:36;101093.97;;;8.23;93.82
46944;BME280;32678;43.852;25.952;2022-12-07T22:03:55;101097.31;;;8.33;93.76
46944;BME280;32678;43.852;25.952;2022-12-07T22:09:02;101085.13;;;8.32;93.42
46944;BME280;32678;43.852;25.952;2022-12-07T22:14:00;101080.06;;;8.21;93.66
46944;BME280;32678;43.852;25.952;2022-12-07T22:19:24;101086.13;;;8.23;93.61
46944;BME280;32678;43.852;25.952;2022-12-07T22:24:24;101102.69;;;8.21;93.58
46944;BME280;32678;43.852;25.952;2022-12-07T22:29:21;101114.09;;;8.18;93.64
46944;BME280;32678;43.852;25.952;2022-12-07T22:34:19;101122.72;;;8.22;93.65
46944;BME280;32678;43.852;25.952;2022-12-07T22:39:16;101131.38;;;8.25;93.52
46944;BME280;32678;43.852;25.952;2022-12-07T22:44:15;101128.03;;;8.17;93.50
46944;BME280;32678;43.852;25.952;2022-12-07T22:49:12;101134.00;;;8.24;93.56
46944;BME280;32678;43.852;25.952;2022-12-07T22:54:13;101135.00;;;8.17;93.56
46944;BME280;32678;43.852;25.952;2022-12-07T22:59:12;101137.56;;;8.20;93.56
46944;BME280;32678;43.852;25.952;2022-12-07T23:04:11;101129.03;;;8.10;93.42
46944;BME280;32678;43.852;25.952;2022-12-07T23:09:09;101116.16;;;7.98;93.73
46944;BME280;32678;43.852;25.952;2022-12-07T23:14:09;101127.31;;;8.09;93.82
46944;BME280;32678;43.852;25.952;2022-12-07T23:19:06;101136.91;;;8.07;93.96
46944;BME280;32678;43.852;25.952;2022-12-07T23:24:05;101146.59;;;8.01;94.06
46944;BME280;32678;43.852;25.952;2022-12-07T23:29:03;101142.19;;;8.04;94.47
46944;BME280;32678;43.852;25.952;2022-12-07T23:34:00;101130.72;;;8.11;94.04
46944;BME280;32678;43.852;25.952;2022-12-07T23:38:57;101130.69;;;8.14;94.11
46944;BME280;32678;43.852;25.952;2022-12-07T23:43:55;101142.78;;;8.20;93.88
46944;BME280;32678;43.852;25.952;2022-12-07T23:48:53;101135.03;;;8.15;94.13
46944;BME280;32678;43.852;25.952;2022-12-07T23:53:52;101150.13;;;7.97;93.86
46944;BME280;32678;43.852;25.952;2022-12-07T23:58:49;101158.31;;;7.75;94.83
